createdAt,value
2016-05-12T00:00:37.979Z,21.01
2016-05-12T00:01:38.247Z,21.09
2016-05-12T00:02:38.031Z,20.97
2016-05-12T00:03:38.206Z,20.97
2016-05-12T00:04:38.239Z,20.94
2016-05-12T00:05:38.274Z,21.04
2016-05-12T00:06:38.276Z,20.95
2016-05-12T00:07:38.154Z,20.98
2016-05-12T00:08:38.329Z,20.98
2016-05-12T00:09:38.362Z,20.98
2016-05-12T00:10:38.397Z,20.92
2016-05-12T00:11:38.258Z,20.98
2016-05-12T00:12:38.433Z,20.91
2016-05-12T00:13:38.452Z,20.97
2016-05-12T00:14:38.329Z,20.92
2016-05-12T00:15:38.519Z,20.94
2016-05-12T00:16:38.553Z,20.95
2016-05-12T00:17:38.571Z,20.94
2016-05-12T00:18:38.590Z,20.95
2016-05-12T00:19:38.624Z,20.91
2016-05-12T00:20:38.642Z,20.94
2016-05-12T00:21:38.676Z,20.89
2016-05-12T00:22:38.537Z,20.87
2016-05-12T00:23:38.713Z,20.89
2016-05-12T00:24:38.748Z,20.94
2016-05-12T00:25:38.781Z,20.89
2016-05-12T00:26:38.814Z,20.89
2016-05-12T00:27:38.676Z,20.82
2016-05-12T00:28:38.850Z,20.94
2016-05-12T00:29:38.885Z,20.95
2016-05-12T00:30:38.903Z,20.89
2016-05-12T00:31:38.781Z,20.92
2016-05-12T00:32:38.956Z,20.85
2016-05-12T00:33:39.005Z,20.95
2016-05-12T00:34:39.008Z,20.89
2016-05-12T00:35:38.870Z,20.88
2016-05-12T00:36:39.044Z,20.89
2016-05-12T00:37:39.078Z,20.87
2016-05-12T00:38:39.113Z,20.85
2016-05-12T00:39:39.131Z,20.92
2016-05-12T00:40:39.165Z,20.91
2016-05-12T00:41:39.183Z,20.87
2016-05-12T00:42:39.216Z,20.87
2016-05-12T00:43:39.235Z,20.89
2016-05-12T00:44:39.096Z,20.91
2016-05-12T00:45:39.287Z,20.84
2016-05-12T00:46:39.744Z,20.88
2016-05-12T00:47:39.340Z,20.88
2016-05-12T00:48:39.358Z,20.89
2016-05-12T00:49:39.392Z,20.8
2016-05-12T00:50:39.410Z,20.85
2016-05-12T00:51:39.444Z,20.88
2016-05-12T00:52:39.462Z,20.77
2016-05-12T00:53:39.340Z,20.87
2016-05-12T00:54:39.515Z,20.85
2016-05-12T00:55:39.376Z,20.87
2016-05-12T00:56:39.411Z,20.87
2016-05-12T00:57:39.445Z,20.87
2016-05-12T00:58:39.464Z,20.85
2016-05-12T00:59:39.637Z,20.82
2016-05-12T01:00:39.530Z,20.76
2016-05-12T01:01:39.862Z,20.76
2016-05-12T01:02:39.725Z,20.79
2016-05-12T01:03:39.758Z,20.76
2016-05-12T01:04:39.760Z,20.8
2016-05-12T01:05:39.638Z,20.8
2016-05-12T01:06:39.828Z,20.7
2016-05-12T01:07:39.847Z,20.7
2016-05-12T01:08:39.881Z,20.84
2016-05-12T01:09:39.899Z,20.73
2016-05-12T01:10:39.933Z,20.76
2016-05-12T01:11:39.951Z,20.7
2016-05-12T01:12:39.969Z,20.7
2016-05-12T01:13:40.004Z,20.76
2016-05-12T01:14:40.022Z,20.79
2016-05-12T01:15:39.900Z,20.73
2016-05-12T01:16:40.449Z,20.67
2016-05-12T01:17:40.139Z,20.73
2016-05-12T01:18:39.970Z,20.64
2016-05-12T01:19:40.160Z,20.67
2016-05-12T01:20:40.178Z,20.74
2016-05-12T01:21:40.197Z,20.64
2016-05-12T01:22:40.231Z,20.59
2016-05-12T01:23:40.249Z,20.64
2016-05-12T01:24:40.299Z,20.74
2016-05-12T01:25:40.161Z,20.66
2016-05-12T01:26:40.367Z,20.64
2016-05-12T01:27:40.369Z,20.67
2016-05-12T01:28:40.387Z,20.64
2016-05-12T01:29:40.406Z,20.64
2016-05-12T01:30:40.440Z,20.67
2016-05-12T01:31:40.505Z,20.62
2016-05-12T01:32:40.492Z,20.64
2016-05-12T01:33:40.510Z,20.62
2016-05-12T01:34:40.388Z,20.62
2016-05-12T01:35:40.578Z,20.64
2016-05-12T01:36:40.597Z,20.64
2016-05-12T01:37:40.459Z,20.61
2016-05-12T01:38:40.477Z,20.67
2016-05-12T01:39:40.527Z,20.7
2016-05-12T01:40:40.685Z,20.67
2016-05-12T01:41:40.720Z,20.62
2016-05-12T01:42:40.738Z,20.64
2016-05-12T01:43:40.755Z,20.62
2016-05-12T01:44:40.790Z,20.62
2016-05-12T01:45:40.824Z,20.58
2016-05-12T01:46:40.530Z,20.59
2016-05-12T01:47:40.876Z,20.58
2016-05-12T01:48:40.894Z,20.59
2016-05-12T01:49:40.929Z,20.58
2016-05-12T01:50:40.946Z,20.59
2016-05-12T01:51:40.965Z,20.64
2016-05-12T01:52:40.984Z,20.61
2016-05-12T01:53:41.032Z,20.62
2016-05-12T01:54:40.895Z,20.54
2016-05-12T01:55:41.070Z,20.59
2016-05-12T01:56:41.104Z,20.51
2016-05-12T01:57:41.122Z,20.55
2016-05-12T01:58:41.156Z,20.55
2016-05-12T01:59:40.862Z,20.54
2016-05-12T02:00:41.208Z,20.57
2016-05-12T02:01:41.600Z,20.57
2016-05-12T02:02:41.103Z,20.57
2016-05-12T02:03:41.279Z,20.55
2016-05-12T02:04:41.297Z,20.55
2016-05-12T02:05:41.330Z,20.55
2016-05-12T02:06:41.349Z,20.54
2016-05-12T02:07:41.367Z,20.43
2016-05-12T02:08:41.402Z,20.55
2016-05-12T02:09:41.419Z,20.52
2016-05-12T02:10:41.297Z,20.42
2016-05-12T02:11:41.472Z,20.47
2016-05-12T02:12:41.193Z,20.51
2016-05-12T02:13:41.524Z,20.42
2016-05-12T02:14:41.558Z,20.47
2016-05-12T02:15:41.576Z,20.48
2016-05-12T02:16:41.470Z,20.47
2016-05-12T02:17:41.629Z,20.51
2016-05-12T02:18:41.646Z,20.52
2016-05-12T02:19:41.525Z,20.38
2016-05-12T02:20:41.559Z,20.51
2016-05-12T02:21:41.733Z,20.48
2016-05-12T02:22:41.751Z,20.47
2016-05-12T02:23:41.770Z,20.47
2016-05-12T02:24:41.804Z,20.41
2016-05-12T02:25:41.838Z,20.42
2016-05-12T02:26:41.856Z,20.41
2016-05-12T02:27:41.890Z,20.43
2016-05-12T02:28:41.751Z,20.43
2016-05-12T02:29:41.942Z,20.42
2016-05-12T02:30:41.961Z,20.42
2016-05-12T02:31:41.823Z,20.42
2016-05-12T02:32:42.013Z,20.38
2016-05-12T02:33:42.031Z,20.36
2016-05-12T02:34:42.064Z,20.41
2016-05-12T02:35:42.084Z,20.36
2016-05-12T02:36:42.148Z,20.32
2016-05-12T02:37:42.150Z,20.38
2016-05-12T02:38:42.170Z,20.32
2016-05-12T02:39:42.047Z,20.31
2016-05-12T02:40:42.222Z,20.32
2016-05-12T02:41:42.241Z,20.31
2016-05-12T02:42:42.164Z,20.33
2016-05-12T02:43:42.292Z,20.29
2016-05-12T02:44:42.310Z,20.29
2016-05-12T02:45:42.172Z,20.31
2016-05-12T02:46:42.472Z,20.31
2016-05-12T02:47:42.225Z,20.36
2016-05-12T02:48:42.415Z,20.31
2016-05-12T02:49:42.433Z,20.29
2016-05-12T02:50:42.155Z,20.35
2016-05-12T02:51:42.486Z,20.23
2016-05-12T02:52:42.363Z,20.32
2016-05-12T02:53:42.538Z,20.29
2016-05-12T02:54:42.556Z,20.33
2016-05-12T02:55:42.590Z,20.31
2016-05-12T02:56:42.608Z,20.32
2016-05-12T02:57:42.486Z,20.28
2016-05-12T02:58:42.505Z,20.33
2016-05-12T02:59:42.695Z,20.36
2016-05-12T03:00:42.557Z,20.33
2016-05-12T03:01:43.200Z,20.33
2016-05-12T03:02:42.765Z,20.26
2016-05-12T03:03:42.783Z,20.29
2016-05-12T03:04:42.662Z,20.33
2016-05-12T03:05:42.695Z,20.28
2016-05-12T03:06:42.870Z,20.28
2016-05-12T03:07:42.888Z,20.24
2016-05-12T03:08:42.922Z,20.33
2016-05-12T03:09:42.941Z,20.33
2016-05-12T03:10:42.975Z,20.28
2016-05-12T03:11:42.992Z,20.21
2016-05-12T03:12:43.011Z,20.2
2016-05-12T03:13:43.045Z,20.24
2016-05-12T03:14:43.063Z,20.29
2016-05-12T03:15:42.941Z,20.28
2016-05-12T03:16:43.349Z,20.18
2016-05-12T03:17:43.150Z,20.31
2016-05-12T03:18:43.168Z,20.2
2016-05-12T03:19:43.202Z,20.2
2016-05-12T03:20:43.221Z,20.21
2016-05-12T03:21:43.254Z,20.18
2016-05-12T03:22:43.115Z,20.18
2016-05-12T03:23:43.306Z,20.17
2016-05-12T03:24:43.324Z,20.16
2016-05-12T03:25:43.187Z,20.18
2016-05-12T03:26:43.376Z,20.21
2016-05-12T03:27:43.395Z,20.17
2016-05-12T03:28:43.273Z,20.16
2016-05-12T03:29:43.447Z,20.18
2016-05-12T03:30:43.309Z,20.16
2016-05-12T03:31:43.437Z,20.18
2016-05-12T03:32:43.518Z,20.16
2016-05-12T03:33:43.551Z,20.17
2016-05-12T03:34:43.570Z,20.16
2016-05-12T03:35:43.603Z,20.2
2016-05-12T03:36:43.622Z,20.23
2016-05-12T03:37:43.641Z,20.18
2016-05-12T03:38:43.675Z,20.21
2016-05-12T03:39:43.693Z,20.23
2016-05-12T03:40:43.727Z,20.16
2016-05-12T03:41:43.744Z,20.16
2016-05-12T03:42:43.779Z,20.08
2016-05-12T03:43:43.797Z,20.13
2016-05-12T03:44:43.831Z,20.21
2016-05-12T03:45:43.865Z,20.1
2016-05-12T03:46:43.586Z,20.2
2016-05-12T03:47:43.902Z,20.17
2016-05-12T03:48:43.764Z,20.16
2016-05-12T03:49:43.938Z,20.13
2016-05-12T03:50:43.972Z,20.14
2016-05-12T03:51:44.007Z,20.18
2016-05-12T03:52:44.025Z,20.11
2016-05-12T03:53:44.043Z,20.16
2016-05-12T03:54:44.077Z,20.06
2016-05-12T03:55:44.095Z,20.21
2016-05-12T03:56:43.817Z,19.99
2016-05-12T03:57:44.148Z,20.14
2016-05-12T03:58:44.182Z,20.21
2016-05-12T03:59:44.201Z,20.01
2016-05-12T04:00:44.062Z,20.08
2016-05-12T04:01:44.284Z,20.11
2016-05-12T04:02:44.270Z,20.13
2016-05-12T04:03:44.304Z,20.13
2016-05-12T04:04:44.323Z,20.13
2016-05-12T04:05:44.373Z,20.16
2016-05-12T04:06:44.375Z,20.11
2016-05-12T04:07:44.409Z,20.08
2016-05-12T04:08:44.427Z,20.11
2016-05-12T04:09:44.461Z,20.05
2016-05-12T04:10:44.495Z,20.06
2016-05-12T04:11:44.514Z,20.03
2016-05-12T04:12:44.516Z,20.03
2016-05-12T04:13:44.566Z,20.05
2016-05-12T04:14:44.583Z,20.13
2016-05-12T04:15:44.446Z,20.08
2016-05-12T04:16:44.589Z,20.06
2016-05-12T04:17:44.654Z,20.18
2016-05-12T04:18:44.689Z,20.06
2016-05-12T04:19:44.550Z,20.06
2016-05-12T04:20:44.569Z,20.14
2016-05-12T04:21:44.759Z,20.11
2016-05-12T04:22:44.621Z,20.11
2016-05-12T04:23:44.795Z,20.17
2016-05-12T04:24:44.829Z,20.13
2016-05-12T04:25:44.848Z,20.14
2016-05-12T04:26:44.882Z,20.23
2016-05-12T04:27:44.915Z,20.21
2016-05-12T04:28:44.918Z,20.18
2016-05-12T04:29:44.952Z,20.18
2016-05-12T04:30:44.971Z,20.13
2016-05-12T04:31:45.207Z,20.2
2016-05-12T04:32:45.023Z,20.14
2016-05-12T04:33:45.057Z,20.17
2016-05-12T04:34:44.934Z,20.2
2016-05-12T04:35:44.953Z,20.17
2016-05-12T04:36:44.986Z,20.14
2016-05-12T04:37:45.162Z,20.21
2016-05-12T04:38:45.040Z,20.17
2016-05-12T04:39:45.198Z,20.17
2016-05-12T04:40:45.247Z,20.2
2016-05-12T04:41:45.250Z,20.21
2016-05-12T04:42:45.268Z,20.21
2016-05-12T04:43:45.006Z,20.24
2016-05-12T04:44:45.181Z,20.17
2016-05-12T04:45:45.355Z,20.31
2016-05-12T04:46:45.373Z,20.28
2016-05-12T04:47:45.407Z,20.31
2016-05-12T04:48:45.441Z,20.23
2016-05-12T04:49:45.443Z,20.24
2016-05-12T04:50:45.494Z,20.28
2016-05-12T04:51:45.511Z,20.29
2016-05-12T04:52:45.530Z,20.33
2016-05-12T04:53:45.548Z,20.29
2016-05-12T04:54:45.598Z,20.33
2016-05-12T04:55:45.616Z,20.36
2016-05-12T04:56:45.635Z,20.32
2016-05-12T04:57:45.652Z,20.32
2016-05-12T04:58:45.687Z,20.33
2016-05-12T04:59:45.721Z,20.32
2016-05-12T05:00:45.754Z,20.33
2016-05-12T05:01:45.617Z,20.42
2016-05-12T05:02:45.790Z,20.38
2016-05-12T05:03:45.826Z,20.36
2016-05-12T05:04:45.687Z,20.42
2016-05-12T05:05:45.862Z,20.51
2016-05-12T05:06:45.896Z,20.48
2016-05-12T05:07:45.758Z,20.42
2016-05-12T05:08:45.932Z,20.43
2016-05-12T05:09:45.966Z,20.54
2016-05-12T05:10:46.000Z,20.48
2016-05-12T05:11:46.112Z,20.51
2016-05-12T05:12:46.037Z,20.57
2016-05-12T05:13:46.055Z,20.61
2016-05-12T05:14:46.089Z,20.64
2016-05-12T05:15:46.122Z,20.57
2016-05-12T05:16:45.828Z,20.67
2016-05-12T05:17:46.160Z,20.59
2016-05-12T05:18:46.194Z,20.61
2016-05-12T05:19:46.227Z,20.66
2016-05-12T05:20:46.246Z,20.62
2016-05-12T05:21:46.264Z,20.67
2016-05-12T05:22:46.298Z,20.62
2016-05-12T05:23:46.317Z,20.69
2016-05-12T05:24:46.350Z,20.7
2016-05-12T05:25:46.369Z,20.8
2016-05-12T05:26:46.387Z,20.74
2016-05-12T05:27:46.265Z,20.74
2016-05-12T05:28:46.282Z,20.84
2016-05-12T05:29:46.457Z,20.85
2016-05-12T05:30:46.491Z,20.97
2016-05-12T05:31:46.369Z,20.91
2016-05-12T05:32:46.543Z,20.97
2016-05-12T05:33:46.562Z,20.98
2016-05-12T05:34:46.596Z,21.07
2016-05-12T05:35:46.473Z,21.01
2016-05-12T05:36:46.648Z,21.07
2016-05-12T05:37:46.666Z,21.17
2016-05-12T05:38:46.701Z,21.06
2016-05-12T05:39:46.735Z,21.16
2016-05-12T05:40:46.753Z,21.16
2016-05-12T05:41:46.459Z,21.25
2016-05-12T05:42:46.805Z,21.32
2016-05-12T05:43:46.682Z,21.35
2016-05-12T05:44:46.858Z,21.37
2016-05-12T05:45:46.891Z,21.43
2016-05-12T05:46:47.081Z,21.5
2016-05-12T05:47:46.787Z,21.58
2016-05-12T05:48:46.961Z,21.58
2016-05-12T05:49:46.996Z,21.56
2016-05-12T05:50:46.858Z,21.69
2016-05-12T05:51:47.047Z,21.8
2016-05-12T05:52:46.910Z,21.77
2016-05-12T05:53:47.115Z,21.91
2016-05-12T05:54:46.962Z,21.9
2016-05-12T05:55:47.138Z,22.05
2016-05-12T05:56:47.186Z,22.05
2016-05-12T05:57:47.188Z,22.06
2016-05-12T05:58:47.223Z,22.14
2016-05-12T05:59:47.241Z,22.25
2016-05-12T06:00:47.276Z,22.33
2016-05-12T06:01:47.153Z,22.3
2016-05-12T06:02:47.343Z,22.43
2016-05-12T06:03:47.362Z,22.42
2016-05-12T06:04:47.396Z,22.52
2016-05-12T06:05:47.414Z,22.51
2016-05-12T06:06:47.448Z,22.6
2016-05-12T06:07:47.465Z,22.67
2016-05-12T06:08:47.343Z,22.77
2016-05-12T06:09:47.533Z,22.75
2016-05-12T06:10:47.553Z,22.9
2016-05-12T06:11:47.586Z,22.88
2016-05-12T06:12:47.448Z,23.02
2016-05-12T06:13:47.481Z,22.92
2016-05-12T06:14:47.656Z,23.13
2016-05-12T06:15:47.691Z,23.19
2016-05-12T06:16:47.850Z,23.22
2016-05-12T06:17:47.742Z,23.25
2016-05-12T06:18:47.761Z,23.32
2016-05-12T06:19:47.811Z,23.33
2016-05-12T06:20:47.829Z,23.48
2016-05-12T06:21:47.847Z,23.53
2016-05-12T06:22:47.725Z,23.57
2016-05-12T06:23:47.899Z,23.55
2016-05-12T06:24:47.933Z,23.72
2016-05-12T06:25:47.968Z,23.79
2016-05-12T06:26:47.986Z,23.79
2016-05-12T06:27:48.019Z,23.78
2016-05-12T06:28:48.054Z,23.84
2016-05-12T06:29:48.072Z,23.88
2016-05-12T06:30:48.121Z,23.94
2016-05-12T06:31:48.359Z,23.97
2016-05-12T06:32:48.157Z,24.09
2016-05-12T06:33:48.036Z,24.08
2016-05-12T06:34:48.210Z,24.1
2016-05-12T06:35:48.244Z,24.22
2016-05-12T06:36:48.279Z,24.22
2016-05-12T06:37:48.296Z,24.28
2016-05-12T06:38:48.331Z,24.43
2016-05-12T06:39:48.349Z,24.39
2016-05-12T06:40:48.384Z,24.4
2016-05-12T06:41:48.245Z,24.5
2016-05-12T06:42:48.435Z,24.55
2016-05-12T06:43:48.469Z,24.62
2016-05-12T06:44:48.347Z,24.64
2016-05-12T06:45:48.522Z,24.67
2016-05-12T06:46:48.977Z,24.78
2016-05-12T06:47:48.573Z,24.84
2016-05-12T06:48:48.607Z,24.81
2016-05-12T06:49:48.528Z,24.9
2016-05-12T06:50:48.605Z,24.91
2016-05-12T06:51:48.822Z,25
2016-05-12T06:52:48.758Z,25.03
2016-05-12T06:53:48.976Z,25.05
2016-05-12T06:54:49.010Z,25.02
2016-05-12T06:55:49.045Z,25.03
2016-05-12T06:56:49.093Z,25
2016-05-12T06:57:49.142Z,25.05
2016-05-12T06:58:49.191Z,25.13
2016-05-12T06:59:49.059Z,25.21
2016-05-12T07:00:49.255Z,25.3
2016-05-12T07:01:49.137Z,25.38
2016-05-12T07:02:49.334Z,25.36
2016-05-12T07:03:49.372Z,25.52
2016-05-12T07:04:49.393Z,25.47
2016-05-12T07:05:49.429Z,25.6
2016-05-12T07:06:49.449Z,25.6
2016-05-12T07:07:49.485Z,25.61
2016-05-12T07:08:49.521Z,25.76
2016-05-12T07:09:49.541Z,25.77
2016-05-12T07:10:49.419Z,25.69
2016-05-12T07:11:49.609Z,25.83
2016-05-12T07:12:49.628Z,25.91
2016-05-12T07:13:49.507Z,25.95
2016-05-12T07:14:49.682Z,25.95
2016-05-12T07:15:49.716Z,25.94
2016-05-12T07:16:49.984Z,25.83
2016-05-12T07:17:49.784Z,25.24
2016-05-12T07:18:49.803Z,24.95
2016-05-12T07:19:49.837Z,24.88
2016-05-12T07:20:49.886Z,25.03
2016-05-12T07:21:49.905Z,25.18
2016-05-12T07:22:49.767Z,25.3
2016-05-12T07:23:49.958Z,25.43
2016-05-12T07:24:49.976Z,25.57
2016-05-12T07:25:50.025Z,25.64
2016-05-12T07:26:50.043Z,25.73
2016-05-12T07:27:49.922Z,25.85
2016-05-12T07:28:50.111Z,25.8
2016-05-12T07:29:50.130Z,25.87
2016-05-12T07:30:50.164Z,25.88
2016-05-12T07:31:50.260Z,25.77
2016-05-12T07:32:50.060Z,25.83
2016-05-12T07:33:50.094Z,25.91
2016-05-12T07:34:50.268Z,25.95
2016-05-12T07:35:50.146Z,26.05
2016-05-12T07:36:50.336Z,25.95
2016-05-12T07:37:50.370Z,26.06
2016-05-12T07:38:50.404Z,26.12
2016-05-12T07:39:50.422Z,26.13
2016-05-12T07:40:50.457Z,26.13
2016-05-12T07:41:50.334Z,26.18
2016-05-12T07:42:50.368Z,26.3
2016-05-12T07:43:50.401Z,26.32
2016-05-12T07:44:50.577Z,26.26
2016-05-12T07:45:50.610Z,26.3
2016-05-12T07:46:50.473Z,26.33
2016-05-12T07:47:50.662Z,26.33
2016-05-12T07:48:50.384Z,26.26
2016-05-12T07:49:50.731Z,26.26
2016-05-12T07:50:50.748Z,26.33
2016-05-12T07:51:50.784Z,26.37
2016-05-12T07:52:50.661Z,26.33
2016-05-12T07:53:50.851Z,26.39
2016-05-12T07:54:50.869Z,26.43
2016-05-12T07:55:50.903Z,26.45
2016-05-12T07:56:50.937Z,26.44
2016-05-12T07:57:50.955Z,26.4
2016-05-12T07:58:50.989Z,26.26
2016-05-12T07:59:51.022Z,26.09
2016-05-12T08:00:50.900Z,25.98
2016-05-12T08:01:51.075Z,25.98
2016-05-12T08:02:51.109Z,26.25
2016-05-12T08:03:50.830Z,26.36
2016-05-12T08:04:51.005Z,26.57
2016-05-12T08:05:51.196Z,26.65
2016-05-12T08:06:51.230Z,26.8
2016-05-12T08:07:51.107Z,26.81
2016-05-12T08:08:51.124Z,26.89
2016-05-12T08:09:51.316Z,26.95
2016-05-12T08:10:51.178Z,26.97
2016-05-12T08:11:51.368Z,26.94
2016-05-12T08:12:51.402Z,26.91
2016-05-12T08:13:51.435Z,26.88
2016-05-12T08:14:51.454Z,26.97
2016-05-12T08:15:51.488Z,26.95
2016-05-12T08:16:51.693Z,26.94
2016-05-12T08:17:51.572Z,27
2016-05-12T08:18:51.590Z,26.99
2016-05-12T08:19:51.608Z,26.97
2016-05-12T08:20:51.643Z,26.99
2016-05-12T08:21:51.660Z,27.04
2016-05-12T08:22:51.709Z,26.95
2016-05-12T08:23:51.728Z,26.92
2016-05-12T08:24:51.762Z,26.82
2016-05-12T08:25:51.795Z,26.73
2016-05-12T08:26:51.814Z,26.66
2016-05-12T08:27:51.848Z,26.69
2016-05-12T08:28:51.866Z,26.73
2016-05-12T08:29:51.916Z,26.54
2016-05-12T08:31:05.466Z,26.52
2016-05-12T08:31:51.922Z,26.52
2016-05-12T08:32:52.003Z,26.55
2016-05-12T08:33:52.022Z,26.58
2016-05-12T08:34:52.055Z,26.58
2016-05-12T08:35:52.089Z,26.51
2016-05-12T08:36:52.107Z,26.48
2016-05-12T08:37:51.985Z,26.52
2016-05-12T08:38:52.066Z,26.58
2016-05-12T08:39:52.193Z,26.6
2016-05-12T08:40:52.227Z,26.52
2016-05-12T08:41:52.260Z,26.48
2016-05-12T08:42:52.138Z,26.39
2016-05-12T08:43:52.157Z,26.35
2016-05-12T08:44:52.347Z,26.32
2016-05-12T08:45:52.381Z,26.28
2016-05-12T08:46:52.431Z,26.3
2016-05-12T08:47:52.449Z,26.3
2016-05-12T08:48:52.482Z,26.36
2016-05-12T08:49:52.532Z,26.3
2016-05-12T08:50:52.535Z,26.25
2016-05-12T08:51:52.553Z,26.28
2016-05-12T08:52:52.587Z,26.21
2016-05-12T08:53:52.450Z,26.23
2016-05-12T08:54:52.483Z,26.23
2016-05-12T08:55:52.518Z,26.2
2016-05-12T08:56:52.536Z,26.09
2016-05-12T08:57:52.741Z,25.9
2016-05-12T08:58:52.776Z,25.79
2016-05-12T08:59:52.794Z,25.58
2016-05-12T09:00:52.671Z,25.43
2016-05-12T09:01:52.847Z,25.52
2016-05-12T09:02:52.880Z,25.35
2016-05-12T09:03:52.914Z,25.36
2016-05-12T09:04:52.932Z,25.33
2016-05-12T09:05:52.810Z,25.39
2016-05-12T09:06:53.000Z,25.51
2016-05-12T09:07:53.018Z,25.54
2016-05-12T09:08:56.443Z,25.51
2016-05-12T09:09:52.930Z,25.51
2016-05-12T09:10:53.105Z,25.5
2016-05-12T09:11:53.138Z,25.51
2016-05-12T09:12:53.157Z,25.55
2016-05-12T09:13:53.206Z,25.43
2016-05-12T09:14:53.085Z,25.55
2016-05-12T09:15:53.102Z,25.54
2016-05-12T09:16:53.371Z,25.5
2016-05-12T09:17:53.171Z,25.45
2016-05-12T09:18:53.345Z,25.39
2016-05-12T09:19:53.363Z,25.43
2016-05-12T09:20:53.398Z,25.33
2016-05-12T09:21:53.431Z,25.4
2016-05-12T09:22:53.449Z,25.39
2016-05-12T09:23:53.483Z,25.42
2016-05-12T09:24:56.517Z,25.27
2016-05-12T09:25:53.536Z,25.32
2016-05-12T09:26:53.569Z,25.23
2016-05-12T09:27:53.462Z,25.24
2016-05-12T09:28:53.637Z,25.25
2016-05-12T09:29:53.656Z,25.27
2016-05-12T09:30:53.689Z,25.2
2016-05-12T09:31:53.583Z,25.14
2016-05-12T09:32:53.601Z,25.1
2016-05-12T09:33:53.775Z,25.1
2016-05-12T09:34:53.810Z,25.1
2016-05-12T09:35:53.844Z,25.09
2016-05-12T09:36:53.878Z,25.14
2016-05-12T09:37:53.896Z,25.1
2016-05-12T09:38:53.758Z,25.03
2016-05-12T09:39:53.964Z,25.14
2016-05-12T09:40:53.982Z,25.14
2016-05-12T09:41:54.000Z,25.05
2016-05-12T09:42:53.877Z,25.02
2016-05-12T09:43:54.068Z,24.95
2016-05-12T09:44:54.087Z,24.87
2016-05-12T09:45:54.120Z,24.88
2016-05-12T09:46:54.014Z,24.88
2016-05-12T09:47:54.188Z,24.87
2016-05-12T09:48:54.207Z,24.8
2016-05-12T09:49:54.241Z,24.76
2016-05-12T09:50:54.274Z,24.77
2016-05-12T09:51:54.293Z,24.78
2016-05-12T09:52:54.326Z,24.78
2016-05-12T09:53:54.361Z,24.8
2016-05-12T09:54:58.426Z,24.83
2016-05-12T09:55:54.413Z,24.69
2016-05-12T09:56:54.447Z,24.76
2016-05-12T09:57:54.481Z,24.76
2016-05-12T09:58:54.499Z,24.69
2016-05-12T09:59:54.377Z,24.69
2016-05-12T10:00:54.411Z,24.62
2016-05-12T10:01:55.210Z,24.58
2016-05-12T10:02:54.620Z,24.57
2016-05-12T10:03:54.654Z,24.61
2016-05-12T10:04:54.531Z,24.6
2016-05-12T10:05:54.706Z,24.6
2016-05-12T10:06:54.567Z,24.52
2016-05-12T10:07:54.774Z,24.47
2016-05-12T10:08:54.792Z,24.47
2016-05-12T10:09:54.825Z,24.5
2016-05-12T10:10:54.688Z,24.49
2016-05-12T10:11:54.877Z,24.52
2016-05-12T10:12:54.912Z,24.43
2016-05-12T10:13:54.774Z,24.47
2016-05-12T10:14:54.948Z,24.46
2016-05-12T10:15:54.982Z,24.4
2016-05-12T10:16:54.876Z,24.34
2016-05-12T10:17:54.894Z,24.42
2016-05-12T10:18:55.069Z,24.52
2016-05-12T10:19:54.946Z,24.49
2016-05-12T10:20:54.965Z,24.34
2016-05-12T10:21:55.201Z,24.31
2016-05-12T10:22:55.033Z,24.31
2016-05-12T10:23:55.223Z,24.4
2016-05-12T10:24:55.257Z,24.39
2016-05-12T10:25:55.118Z,24.42
2016-05-12T10:26:55.309Z,24.39
2016-05-12T10:27:55.328Z,24.34
2016-05-12T10:28:55.361Z,24.42
2016-05-12T10:29:55.395Z,24.45
2016-05-12T10:30:55.288Z,24.35
2016-05-12T10:31:55.291Z,24.42
2016-05-12T10:32:55.482Z,24.49
2016-05-12T10:33:55.358Z,24.4
2016-05-12T10:34:55.533Z,24.42
2016-05-12T10:35:56.099Z,24.4
2016-05-12T10:36:55.445Z,24.46
2016-05-12T10:37:55.620Z,24.45
2016-05-12T10:38:55.669Z,24.47
2016-05-12T10:39:55.672Z,24.49
2016-05-12T10:40:55.752Z,24.49
2016-05-12T10:41:55.740Z,24.49
2016-05-12T10:42:55.774Z,24.5
2016-05-12T10:43:55.792Z,24.47
2016-05-12T10:44:55.669Z,24.52
2016-05-12T10:45:55.844Z,24.46
2016-05-12T10:46:55.894Z,24.52
2016-05-12T10:47:55.913Z,24.57
2016-05-12T10:48:55.774Z,24.55
2016-05-12T10:49:55.964Z,24.57
2016-05-12T10:50:55.999Z,24.61
2016-05-12T10:51:56.033Z,24.61
2016-05-12T10:52:56.051Z,24.6
2016-05-12T10:53:56.085Z,24.62
2016-05-12T10:54:56.103Z,24.62
2016-05-12T10:55:56.153Z,24.6
2016-05-12T10:56:56.171Z,24.6
2016-05-12T10:57:56.080Z,24.61
2016-05-12T10:58:56.067Z,24.57
2016-05-12T10:59:56.256Z,24.47
2016-05-12T11:00:56.291Z,24.46
2016-05-12T11:01:57.013Z,24.58
2016-05-12T11:02:56.342Z,24.47
2016-05-12T11:03:56.392Z,24.6
2016-05-12T11:04:56.239Z,24.58
2016-05-12T11:05:56.430Z,24.64
2016-05-12T11:06:56.464Z,24.57
2016-05-12T11:07:56.623Z,24.67
2016-05-12T11:08:56.515Z,24.65
2016-05-12T11:09:56.550Z,24.69
2016-05-12T11:10:56.569Z,24.69
2016-05-12T11:11:56.602Z,24.71
2016-05-12T11:12:56.636Z,24.65
2016-05-12T11:13:56.669Z,24.76
2016-05-12T11:14:56.547Z,24.77
2016-05-12T11:15:56.566Z,24.73
2016-05-12T11:16:56.615Z,24.71
2016-05-12T11:17:56.790Z,24.73
2016-05-12T11:18:56.511Z,24.71
2016-05-12T11:19:56.670Z,24.77
2016-05-12T11:20:56.860Z,24.78
2016-05-12T11:21:56.894Z,24.78
2016-05-12T11:22:56.756Z,24.77
2016-05-12T11:23:56.790Z,24.78
2016-05-12T11:24:56.981Z,24.77
2016-05-12T11:25:56.999Z,24.8
2016-05-12T11:26:56.876Z,24.9
2016-05-12T11:27:57.067Z,24.91
2016-05-12T11:28:56.960Z,24.84
2016-05-12T11:29:56.963Z,24.83
2016-05-12T11:30:57.153Z,24.9
2016-05-12T11:31:57.186Z,24.9
2016-05-12T11:32:57.065Z,24.83
2016-05-12T11:33:57.083Z,24.85
2016-05-12T11:34:57.116Z,24.85
2016-05-12T11:35:57.292Z,24.83
2016-05-12T11:36:57.325Z,24.93
2016-05-12T11:37:57.203Z,24.87
2016-05-12T11:38:57.377Z,25.02
2016-05-12T11:39:57.412Z,24.96
2016-05-12T11:40:57.320Z,24.98
2016-05-12T11:41:57.463Z,25.02
2016-05-12T11:42:57.498Z,24.99
2016-05-12T11:43:57.532Z,24.99
2016-05-12T11:44:57.550Z,25.02
2016-05-12T11:45:57.584Z,25.03
2016-05-12T11:46:57.461Z,25.03
2016-05-12T11:47:57.668Z,24.96
2016-05-12T11:48:57.701Z,25.02
2016-05-12T11:49:57.549Z,25.05
2016-05-12T11:50:57.738Z,24.98
2016-05-12T11:51:57.599Z,25.02
2016-05-12T11:52:57.790Z,25.03
2016-05-12T11:53:57.824Z,25.03
2016-05-12T11:54:57.858Z,25.06
2016-05-12T11:55:57.907Z,25.09
2016-05-12T11:56:57.910Z,25.08
2016-05-12T11:57:57.960Z,25.02
2016-05-12T11:58:57.962Z,25.03
2016-05-12T11:59:57.840Z,25.13
2016-05-12T12:00:57.874Z,25.15
2016-05-12T12:01:58.471Z,25.06
2016-05-12T12:02:59.146Z,25.08
2016-05-12T12:03:58.117Z,25.09
2016-05-12T12:04:58.181Z,25.08
2016-05-12T12:05:58.169Z,25.08
2016-05-12T12:06:58.203Z,25.13
2016-05-12T12:07:58.236Z,25
2016-05-12T12:08:58.256Z,25.13
2016-05-12T12:09:58.289Z,25.15
2016-05-12T12:10:58.307Z,25.09
2016-05-12T12:11:58.357Z,25.08
2016-05-12T12:12:58.375Z,25.15
2016-05-12T12:13:58.408Z,25.13
2016-05-12T12:14:58.443Z,25.09
2016-05-12T12:15:58.461Z,25.15
2016-05-12T12:16:58.621Z,25.14
2016-05-12T12:17:58.530Z,25.18
2016-05-12T12:18:58.407Z,25.08
2016-05-12T12:19:58.425Z,25.08
2016-05-12T12:20:58.599Z,25.1
2016-05-12T12:21:58.650Z,25.15
2016-05-12T12:22:58.512Z,25.09
2016-05-12T12:23:58.749Z,25.14
2016-05-12T12:24:58.563Z,25.21
2016-05-12T12:25:58.754Z,25.14
2016-05-12T12:26:58.648Z,25.14
2016-05-12T12:27:58.806Z,25.15
2016-05-12T12:28:58.840Z,25.15
2016-05-12T12:29:58.873Z,25.15
2016-05-12T12:30:58.751Z,25.13
2016-05-12T12:31:58.615Z,25.1
2016-05-12T12:32:58.960Z,25.1
2016-05-12T12:33:59.025Z,25.13
2016-05-12T12:34:58.872Z,25.1
2016-05-12T12:35:59.047Z,25.18
2016-05-12T12:36:59.065Z,25.13
2016-05-12T12:37:58.787Z,25.09
2016-05-12T12:38:59.133Z,25.18
2016-05-12T12:39:59.167Z,25.2
2016-05-12T12:40:59.029Z,25.33
2016-05-12T12:41:59.234Z,25.28
2016-05-12T12:42:59.237Z,25.28
2016-05-12T12:43:59.271Z,25.3
2016-05-12T12:44:59.149Z,25.36
2016-05-12T12:45:59.339Z,25.38
2016-05-12T12:46:59.607Z,25.4
2016-05-12T12:47:59.250Z,25.38
2016-05-12T12:48:59.424Z,25.38
2016-05-12T12:49:59.460Z,25.36
2016-05-12T12:50:59.321Z,25.35
2016-05-12T12:51:59.511Z,25.33
2016-05-12T12:52:59.546Z,25.38
2016-05-12T12:53:59.563Z,25.32
2016-05-12T12:54:59.457Z,25.36
2016-05-12T12:55:59.632Z,25.36